createdAt,value
2022-10-21T00:00:29.661Z,28.38
2022-10-21T00:02:59.491Z,26.20
2022-10-21T00:05:28.519Z,27.75
2022-10-21T00:07:57.301Z,27.02
2022-10-21T00:10:26.407Z,26.88
2022-10-21T00:12:54.727Z,25.98
2022-10-21T00:15:23.276Z,26.83
2022-10-21T00:17:53.246Z,26.55
2022-10-21T00:22:51.390Z,26.23
2022-10-21T00:25:20.863Z,26.30
2022-10-21T00:27:49.837Z,25.95
2022-10-21T00:30:19.748Z,26.75
2022-10-21T00:32:48.629Z,27.13
2022-10-21T00:35:18.682Z,27.13
2022-10-21T00:37:47.475Z,26.30
2022-10-21T00:40:18.084Z,26.88
2022-10-21T00:42:49.327Z,26.23
2022-10-21T00:45:23.804Z,26.75
2022-10-21T00:47:59.205Z,26.13
2022-10-21T00:50:41.783Z,26.40
2022-10-21T00:53:17.079Z,28.35
2022-10-21T00:55:53.324Z,27.13
2022-10-21T00:58:29.757Z,25.42
2022-10-21T01:01:04.030Z,24.98
2022-10-21T01:03:36.935Z,26.25
2022-10-21T01:06:11.979Z,26.40
2022-10-21T01:08:41.362Z,27.15
2022-10-21T01:11:18.754Z,25.83
2022-10-21T01:14:08.606Z,25.02
2022-10-21T01:16:48.940Z,25.83
2022-10-21T01:19:53.514Z,27.00
2022-10-21T01:22:49.130Z,25.75
2022-10-21T01:25:49.565Z,24.63
2022-10-21T01:28:30.779Z,25.05
2022-10-21T01:31:03.293Z,24.58
2022-10-21T01:33:44.617Z,25.00
2022-10-21T01:36:52.668Z,23.40
2022-10-21T01:39:31.666Z,23.55
2022-10-21T01:42:07.263Z,22.70
2022-10-21T01:44:46.057Z,23.73
2022-10-21T01:47:22.331Z,23.98
2022-10-21T01:49:57.546Z,22.98
2022-10-21T01:52:27.139Z,22.60
2022-10-21T01:55:00.389Z,21.30
2022-10-21T01:57:34.962Z,21.95
2022-10-21T02:00:06.260Z,23.20
2022-10-21T02:02:44.649Z,22.52
2022-10-21T02:05:22.735Z,22.95
2022-10-21T02:12:07.106Z,23.52
2022-10-21T02:14:41.023Z,24.30
2022-10-21T02:17:14.919Z,24.13
2022-10-21T02:19:47.239Z,25.27
2022-10-21T02:22:22.228Z,25.15
2022-10-21T02:24:55.707Z,25.95
2022-10-21T02:27:26.000Z,25.48
2022-10-21T02:30:02.006Z,25.33
2022-10-21T02:32:39.190Z,25.42
2022-10-21T02:35:24.432Z,26.30
2022-10-21T02:38:04.894Z,28.03
2022-10-21T02:40:39.142Z,27.83
2022-10-21T02:43:13.421Z,29.38
2022-10-21T02:45:42.985Z,28.85
2022-10-21T02:48:14.038Z,28.90
2022-10-21T02:50:44.467Z,30.02
2022-10-21T02:53:14.647Z,29.25
2022-10-21T02:55:47.875Z,29.40
2022-10-21T02:58:17.718Z,29.67
2022-10-21T03:00:47.005Z,30.05
2022-10-21T03:03:18.161Z,31.30
2022-10-21T03:06:00.376Z,30.60
2022-10-21T03:08:29.546Z,30.30
2022-10-21T03:10:59.907Z,30.85
2022-10-21T03:13:30.014Z,32.08
2022-10-21T03:15:59.405Z,30.67
2022-10-21T03:18:30.201Z,31.05
2022-10-21T03:21:01.019Z,30.40
2022-10-21T03:23:31.950Z,31.23
2022-10-21T03:26:00.389Z,31.13
2022-10-21T03:28:30.435Z,32.55
2022-10-21T03:30:59.477Z,32.40
2022-10-21T03:33:31.793Z,31.55
2022-10-21T03:36:03.524Z,31.50
2022-10-21T03:38:33.957Z,31.60
2022-10-21T03:41:03.907Z,32.70
2022-10-21T03:43:32.553Z,32.67
2022-10-21T03:46:01.074Z,32.10
2022-10-21T03:48:29.983Z,32.15
2022-10-21T03:50:58.571Z,32.30
2022-10-21T03:53:42.818Z,31.58
2022-10-21T03:56:16.873Z,32.25
2022-10-21T03:58:47.099Z,32.22
2022-10-21T04:01:16.335Z,32.50
2022-10-21T04:03:45.183Z,31.55
2022-10-21T04:06:14.417Z,32.45
2022-10-21T04:08:44.531Z,32.63
2022-10-21T04:11:19.660Z,32.58
2022-10-21T04:13:48.516Z,33.25
2022-10-21T04:16:20.521Z,33.70
2022-10-21T04:18:54.502Z,33.75
2022-10-21T04:23:54.719Z,31.17
2022-10-21T04:26:24.193Z,31.80
2022-10-21T04:28:52.943Z,32.67
2022-10-21T04:31:21.973Z,31.70
2022-10-21T04:33:51.926Z,31.25
2022-10-21T04:36:20.507Z,30.48
2022-10-21T04:38:50.240Z,31.52
2022-10-21T04:41:22.189Z,31.35
2022-10-21T04:43:50.726Z,31.48
2022-10-21T04:46:21.888Z,31.30
2022-10-21T04:48:50.496Z,31.35
2022-10-21T04:51:19.741Z,31.67
2022-10-21T04:53:48.491Z,32.03
2022-10-21T04:56:17.325Z,33.22
2022-10-21T04:58:47.694Z,33.13
2022-10-21T05:01:19.103Z,32.65
2022-10-21T05:03:47.967Z,33.20
2022-10-21T05:06:17.486Z,33.38
2022-10-21T05:08:46.111Z,34.45
2022-10-21T05:11:15.262Z,32.35
2022-10-21T05:13:44.106Z,32.20
2022-10-21T05:16:14.271Z,33.50
2022-10-21T05:18:42.912Z,32.15
2022-10-21T05:21:11.885Z,32.10
2022-10-21T05:23:41.273Z,34.78
2022-10-21T05:26:11.884Z,34.00
2022-10-21T05:28:41.330Z,34.38
2022-10-21T05:31:10.142Z,33.15
2022-10-21T05:33:40.428Z,34.40
2022-10-21T05:36:10.770Z,33.63
2022-10-21T05:38:40.467Z,33.08
2022-10-21T05:41:11.022Z,32.88
2022-10-21T05:43:41.887Z,34.50
2022-10-21T05:46:10.839Z,34.45
2022-10-21T05:48:42.620Z,33.22
2022-10-21T05:51:13.383Z,32.38
2022-10-21T05:53:43.425Z,31.15
2022-10-21T05:56:12.922Z,32.35
2022-10-21T05:58:43.338Z,32.38
2022-10-21T06:01:13.835Z,32.70
2022-10-21T06:03:44.266Z,33.00
2022-10-21T06:06:16.869Z,32.25
2022-10-21T06:08:45.760Z,31.50
2022-10-21T06:11:16.339Z,31.60
2022-10-21T06:13:45.223Z,32.13
2022-10-21T06:16:16.224Z,32.22
2022-10-21T06:18:47.238Z,31.35
2022-10-21T06:21:16.934Z,30.95
2022-10-21T06:23:45.770Z,30.23
2022-10-21T06:26:17.428Z,30.42
2022-10-21T06:28:46.248Z,30.25
2022-10-21T06:31:18.788Z,29.88
2022-10-21T06:33:49.102Z,29.38
2022-10-21T06:36:18.461Z,29.33
2022-10-21T06:38:47.313Z,29.08
2022-10-21T06:41:18.361Z,29.63
2022-10-21T06:43:47.911Z,29.23
2022-10-21T06:46:18.255Z,28.70
2022-10-21T06:48:48.951Z,29.80
2022-10-21T06:51:20.555Z,29.13
2022-10-21T06:53:52.953Z,30.13
2022-10-21T06:56:26.322Z,29.27
2022-10-21T06:58:57.327Z,29.20
2022-10-21T07:01:34.530Z,27.92
2022-10-21T07:04:11.957Z,28.75
2022-10-21T07:06:41.346Z,28.77
2022-10-21T07:09:11.514Z,28.98
2022-10-21T07:11:40.375Z,28.02
2022-10-21T07:14:09.478Z,27.77
2022-10-21T07:16:39.455Z,28.08
2022-10-21T07:19:11.535Z,28.60
2022-10-21T07:21:41.658Z,29.17
2022-10-21T07:24:12.018Z,28.55
2022-10-21T07:26:44.223Z,28.05
2022-10-21T07:29:14.160Z,28.40
2022-10-21T07:31:44.015Z,28.42
2022-10-21T07:34:15.230Z,27.83
2022-10-21T07:36:49.444Z,27.95
2022-10-21T07:39:21.945Z,26.95
2022-10-21T07:41:53.286Z,27.52
2022-10-21T07:44:25.722Z,27.05
2022-10-21T07:46:57.768Z,26.30
2022-10-21T07:49:30.273Z,27.38
2022-10-21T07:51:59.125Z,25.73
2022-10-21T07:54:31.088Z,25.10
2022-10-21T07:56:59.892Z,25.65
2022-10-21T07:59:28.687Z,24.73
2022-10-21T08:01:58.071Z,24.80
2022-10-21T08:04:33.276Z,24.70
2022-10-21T08:07:02.428Z,24.88
2022-10-21T08:09:39.350Z,23.42
2022-10-21T08:12:10.387Z,23.77
2022-10-21T08:14:41.663Z,25.20
2022-10-21T08:17:10.136Z,23.88
2022-10-21T08:19:40.644Z,22.80
2022-10-21T08:22:12.064Z,21.60
2022-10-21T08:24:42.374Z,21.02
2022-10-21T08:27:11.092Z,21.50
2022-10-21T08:29:40.906Z,20.20
2022-10-21T08:32:12.732Z,20.63
2022-10-21T08:34:49.270Z,19.50
2022-10-21T08:37:19.210Z,19.55
2022-10-21T08:39:50.866Z,18.92
2022-10-21T08:42:20.915Z,17.98
2022-10-21T08:44:57.823Z,17.20
2022-10-21T08:47:45.760Z,17.23
2022-10-21T08:50:30.552Z,17.05
2022-10-21T08:53:06.610Z,17.33
2022-10-21T08:55:40.382Z,17.30
2022-10-21T08:58:21.233Z,17.00
2022-10-21T09:00:55.899Z,16.60
2022-10-21T09:03:32.858Z,16.33
2022-10-21T09:06:22.576Z,16.08
2022-10-21T09:09:08.376Z,15.85
2022-10-21T09:14:51.178Z,14.68
2022-10-21T09:17:49.094Z,15.57
2022-10-21T09:20:31.884Z,15.18
2022-10-21T09:23:27.027Z,15.68
2022-10-21T09:26:03.280Z,15.48
2022-10-21T09:28:32.766Z,14.95
2022-10-21T09:31:05.506Z,14.57
2022-10-21T09:33:38.199Z,14.82
2022-10-21T09:36:14.944Z,13.70
2022-10-21T09:38:59.061Z,13.43
2022-10-21T09:41:34.150Z,12.85
2022-10-21T09:44:02.981Z,12.90
2022-10-21T09:46:40.039Z,12.63
2022-10-21T09:52:23.867Z,11.50
2022-10-21T09:54:54.663Z,11.70
2022-10-21T09:57:37.306Z,10.95
2022-10-21T10:00:11.119Z,11.27
2022-10-21T10:02:46.234Z,10.48
2022-10-21T10:05:43.911Z,10.80
2022-10-21T10:08:34.514Z,11.60
2022-10-21T10:11:17.556Z,9.82
2022-10-21T10:13:50.158Z,10.75
2022-10-21T10:16:29.024Z,10.68
2022-10-21T10:19:25.849Z,9.50
2022-10-21T10:22:14.946Z,9.00
2022-10-21T10:24:45.663Z,11.50
2022-10-21T10:27:23.610Z,10.20
2022-10-21T10:29:58.627Z,9.85
2022-10-21T10:32:31.974Z,9.73
2022-10-21T10:35:04.919Z,11.05
2022-10-21T10:37:39.070Z,9.18
2022-10-21T10:40:13.950Z,10.00
2022-10-21T10:42:47.903Z,9.27
2022-10-21T10:45:22.062Z,8.23
2022-10-21T10:47:57.703Z,7.50
2022-10-21T10:50:48.724Z,7.40
2022-10-21T10:53:41.476Z,8.07
2022-10-21T10:56:33.529Z,7.35
2022-10-21T11:03:42.573Z,7.40
2022-10-21T11:06:20.884Z,6.47
2022-10-21T11:08:57.229Z,7.50
2022-10-21T11:11:35.965Z,6.65
2022-10-21T11:14:05.748Z,7.30
2022-10-21T11:17:00.553Z,7.63
2022-10-21T11:19:51.386Z,6.57
2022-10-21T11:22:36.486Z,6.90
2022-10-21T11:25:23.602Z,7.03
2022-10-21T11:28:21.673Z,6.95
2022-10-21T11:31:11.076Z,6.80
2022-10-21T11:33:52.668Z,7.60
2022-10-21T11:36:35.034Z,6.85
2022-10-21T11:39:46.277Z,6.45
2022-10-21T11:42:25.436Z,6.68
2022-10-21T11:45:14.819Z,6.50
2022-10-21T11:47:51.622Z,6.38
2022-10-21T11:50:32.450Z,5.93
2022-10-21T11:53:29.747Z,5.50
2022-10-21T11:56:09.425Z,5.93
2022-10-21T11:58:54.827Z,5.55
2022-10-21T12:01:38.140Z,5.90
2022-10-21T12:04:26.624Z,5.97
2022-10-21T12:07:12.661Z,5.50
2022-10-21T12:09:49.338Z,4.78
2022-10-21T12:12:22.903Z,4.68
2022-10-21T12:14:59.455Z,4.97
2022-10-21T12:17:28.630Z,4.05
2022-10-21T12:20:02.336Z,4.28
2022-10-21T12:22:34.567Z,4.70
2022-10-21T12:25:22.198Z,4.68
2022-10-21T12:27:59.124Z,4.35
2022-10-21T12:30:38.856Z,4.47
2022-10-21T12:33:18.743Z,4.55
2022-10-21T12:35:53.438Z,4.50
2022-10-21T12:38:44.792Z,4.20
2022-10-21T12:41:34.971Z,4.40
2022-10-21T12:44:28.375Z,5.05
2022-10-21T12:47:04.556Z,4.75
2022-10-21T12:49:36.372Z,4.90
2022-10-21T12:52:12.474Z,4.32
2022-10-21T12:54:56.924Z,4.22
2022-10-21T12:57:31.940Z,4.30
2022-10-21T13:00:43.157Z,4.35
2022-10-21T13:03:14.473Z,3.78
2022-10-21T13:06:05.707Z,3.70
2022-10-21T13:08:57.622Z,4.20
2022-10-21T13:11:40.618Z,3.67
2022-10-21T13:14:45.120Z,3.95
2022-10-21T13:17:56.197Z,3.35
2022-10-21T13:20:47.643Z,4.00
2022-10-21T13:23:42.626Z,3.92
2022-10-21T13:26:30.363Z,4.72
2022-10-21T13:29:19.522Z,5.25
2022-10-21T13:32:09.672Z,4.63
2022-10-21T13:34:42.258Z,4.38
2022-10-21T13:37:16.287Z,3.58
2022-10-21T13:39:45.323Z,3.60
2022-10-21T13:42:18.291Z,3.72
2022-10-21T13:44:54.959Z,3.65
2022-10-21T13:47:33.012Z,3.78
2022-10-21T13:53:36.567Z,3.67
2022-10-21T13:56:08.429Z,4.43
2022-10-21T13:58:40.910Z,3.50
2022-10-21T14:01:11.884Z,4.53
2022-10-21T14:06:30.962Z,3.70
2022-10-21T14:09:08.753Z,2.97
2022-10-21T14:11:47.074Z,3.20
2022-10-21T14:14:20.668Z,3.40
2022-10-21T14:16:55.260Z,4.55
2022-10-21T14:19:30.685Z,3.20
2022-10-21T14:22:03.450Z,3.53
2022-10-21T14:24:40.185Z,3.05
2022-10-21T14:27:13.055Z,3.55
2022-10-21T14:29:44.371Z,3.55
2022-10-21T14:32:21.608Z,3.50
2022-10-21T14:35:08.206Z,2.90
2022-10-21T14:37:44.368Z,3.40
2022-10-21T14:40:24.500Z,3.88
2022-10-21T14:42:56.789Z,3.53
2022-10-21T14:45:29.750Z,2.92
2022-10-21T14:48:12.977Z,3.38
2022-10-21T14:50:44.990Z,3.05
2022-10-21T14:53:19.735Z,2.83
2022-10-21T14:55:54.986Z,2.10
2022-10-21T15:00:59.965Z,2.40
2022-10-21T15:03:40.327Z,2.63
2022-10-21T15:06:17.102Z,2.10
2022-10-21T15:09:00.180Z,2.00
2022-10-21T15:11:42.218Z,1.75
2022-10-21T15:14:35.038Z,1.67
2022-10-21T15:17:11.258Z,1.92
2022-10-21T15:19:48.104Z,2.00
2022-10-21T15:22:29.592Z,1.88
2022-10-21T15:25:06.934Z,3.10
2022-10-21T15:27:42.925Z,2.65
2022-10-21T15:30:19.783Z,2.05
2022-10-21T15:32:49.135Z,2.90
2022-10-21T15:35:22.367Z,2.17
2022-10-21T15:37:57.621Z,2.08
2022-10-21T15:43:08.805Z,2.67
2022-10-21T15:45:38.431Z,2.50
2022-10-21T15:48:10.997Z,2.65
2022-10-21T15:50:42.906Z,2.00
2022-10-21T15:53:14.847Z,2.33
2022-10-21T15:55:43.660Z,2.50
2022-10-21T15:58:13.235Z,2.58
2022-10-21T16:00:41.852Z,2.55
2022-10-21T16:03:10.714Z,2.63
2022-10-21T16:05:40.133Z,2.45
2022-10-21T16:08:11.971Z,2.40
2022-10-21T16:10:48.138Z,2.65
2022-10-21T16:13:17.690Z,2.38
2022-10-21T16:15:47.853Z,3.45
2022-10-21T16:18:22.683Z,2.85
2022-10-21T16:20:54.524Z,2.97
2022-10-21T16:23:26.579Z,2.80
2022-10-21T16:26:00.141Z,3.17
2022-10-21T16:28:29.664Z,2.88
2022-10-21T16:30:59.659Z,3.78
2022-10-21T16:33:30.376Z,3.60
2022-10-21T16:35:59.110Z,3.70
2022-10-21T16:38:28.531Z,4.03
2022-10-21T16:40:58.551Z,3.65
2022-10-21T16:43:27.143Z,3.40
2022-10-21T16:45:56.108Z,3.70
2022-10-21T16:48:24.482Z,3.72
2022-10-21T16:50:58.193Z,3.95
2022-10-21T16:53:34.452Z,4.35
2022-10-21T16:56:06.441Z,4.22
2022-10-21T16:58:37.617Z,4.10
2022-10-21T17:01:07.292Z,4.40
2022-10-21T17:03:36.163Z,4.47
2022-10-21T17:06:04.852Z,4.70
2022-10-21T17:08:33.643Z,4.35
2022-10-21T17:11:06.263Z,4.30
2022-10-21T17:13:36.270Z,4.72
2022-10-21T17:16:05.447Z,4.75
2022-10-21T17:18:35.448Z,5.43
2022-10-21T17:21:08.743Z,4.25
2022-10-21T17:26:09.797Z,6.30
2022-10-21T17:28:39.820Z,5.72
2022-10-21T17:31:09.411Z,8.55
2022-10-21T17:33:38.278Z,7.05
2022-10-21T17:36:09.083Z,6.60
2022-10-21T17:38:38.303Z,6.35
2022-10-21T17:41:09.001Z,6.80
2022-10-21T17:43:39.793Z,6.88
2022-10-21T17:46:17.754Z,7.38
2022-10-21T17:48:52.005Z,7.88
2022-10-21T17:51:23.151Z,8.10
2022-10-21T17:53:52.717Z,7.95
2022-10-21T17:56:28.733Z,8.20
2022-10-21T17:58:59.179Z,8.65
2022-10-21T18:01:28.923Z,9.23
2022-10-21T18:04:00.387Z,9.80
2022-10-21T18:06:34.027Z,10.30
2022-10-21T18:09:03.817Z,10.18
2022-10-21T18:11:33.846Z,10.90
2022-10-21T18:14:02.386Z,10.90
2022-10-21T18:16:36.507Z,9.77
2022-10-21T18:19:05.252Z,8.93
2022-10-21T18:21:33.798Z,9.68
2022-10-21T18:24:03.108Z,10.02
2022-10-21T18:26:34.897Z,9.18
2022-10-21T18:29:06.517Z,8.90
2022-10-21T18:31:37.986Z,9.48
2022-10-21T18:34:09.928Z,9.10
2022-10-21T18:36:39.138Z,8.98
2022-10-21T18:39:07.937Z,8.70
2022-10-21T18:41:38.714Z,8.65
2022-10-21T18:44:11.828Z,8.68
2022-10-21T18:46:46.634Z,9.20
2022-10-21T18:49:18.636Z,9.55
2022-10-21T18:51:47.379Z,8.05
2022-10-21T18:54:15.897Z,8.23
2022-10-21T18:56:46.307Z,7.78
2022-10-21T18:59:15.691Z,8.35
2022-10-21T19:01:47.709Z,8.30
2022-10-21T19:04:16.805Z,8.18
2022-10-21T19:06:47.789Z,7.65
2022-10-21T19:09:19.882Z,8.35
2022-10-21T19:11:51.362Z,8.05
2022-10-21T19:14:21.364Z,7.72
2022-10-21T19:16:57.035Z,7.30
2022-10-21T19:19:26.127Z,7.60
2022-10-21T19:21:55.092Z,6.88
2022-10-21T19:24:28.486Z,6.53
2022-10-21T19:27:00.641Z,7.10
2022-10-21T19:29:32.570Z,6.25
2022-10-21T19:32:01.148Z,7.00
2022-10-21T19:34:29.954Z,6.28
2022-10-21T19:36:58.847Z,6.80
2022-10-21T19:39:27.334Z,6.88
2022-10-21T19:41:57.420Z,6.95
2022-10-21T19:44:27.855Z,7.00
2022-10-21T19:46:57.070Z,7.00
2022-10-21T19:49:25.706Z,7.00
2022-10-21T19:51:54.768Z,7.82
2022-10-21T19:54:24.368Z,7.40
2022-10-21T19:56:56.298Z,7.60
2022-10-21T19:59:27.665Z,7.68
2022-10-21T20:01:57.594Z,7.53
2022-10-21T20:04:26.556Z,6.95
2022-10-21T20:06:55.711Z,7.15
2022-10-21T20:09:24.867Z,6.90
2022-10-21T20:11:55.603Z,7.45
2022-10-21T20:14:28.291Z,7.30
2022-10-21T20:16:57.981Z,7.65
2022-10-21T20:19:29.280Z,7.45
2022-10-21T20:21:59.786Z,7.60
2022-10-21T20:24:29.055Z,7.10
2022-10-21T20:27:01.215Z,7.43
2022-10-21T20:29:32.872Z,7.50
2022-10-21T20:32:02.931Z,7.13
2022-10-21T20:34:34.066Z,7.07
2022-10-21T20:37:07.443Z,7.20
2022-10-21T20:39:37.543Z,7.53
2022-10-21T20:42:06.147Z,7.15
2022-10-21T20:44:36.093Z,7.95
2022-10-21T20:47:04.639Z,7.15
2022-10-21T20:49:36.976Z,6.97
2022-10-21T20:52:06.345Z,7.90
2022-10-21T20:54:35.159Z,6.95
2022-10-21T20:57:05.305Z,7.70
2022-10-21T20:59:37.865Z,7.78
2022-10-21T21:04:43.355Z,7.15
2022-10-21T21:07:14.771Z,7.25
2022-10-21T21:10:01.587Z,6.90
2022-10-21T21:12:32.231Z,7.15
2022-10-21T21:15:02.661Z,6.43
2022-10-21T21:17:32.296Z,6.97
2022-10-21T21:20:02.742Z,6.18
2022-10-21T21:22:32.412Z,5.72
2022-10-21T21:25:02.089Z,6.00
2022-10-21T21:27:32.461Z,6.25
2022-10-21T21:32:33.195Z,7.00
2022-10-21T21:35:05.135Z,6.10
2022-10-21T21:37:34.973Z,7.20
2022-10-21T21:40:03.635Z,7.05
2022-10-21T21:42:32.609Z,6.95
2022-10-21T21:45:04.052Z,7.45
2022-10-21T21:47:35.780Z,7.07
2022-10-21T21:50:05.281Z,7.20
2022-10-21T21:52:35.032Z,6.70
2022-10-21T21:55:03.497Z,6.10
2022-10-21T21:57:32.450Z,6.50
2022-10-21T22:00:04.706Z,6.32
2022-10-21T22:02:36.728Z,5.60
2022-10-21T22:05:09.052Z,5.97
2022-10-21T22:07:40.903Z,6.22
2022-10-21T22:10:11.231Z,7.00
2022-10-21T22:12:40.987Z,6.97
2022-10-21T22:15:35.746Z,5.97
2022-10-21T22:18:03.887Z,6.63
2022-10-21T22:20:34.492Z,7.63
2022-10-21T22:23:03.818Z,6.72
2022-10-21T22:25:32.624Z,5.88
2022-10-21T22:28:01.268Z,6.13
2022-10-21T22:30:35.369Z,6.32
2022-10-21T22:33:07.648Z,5.80
2022-10-21T22:35:38.784Z,5.93
2022-10-21T22:38:08.332Z,5.70
2022-10-21T22:40:36.879Z,5.38
2022-10-21T22:43:05.263Z,6.00
2022-10-21T22:45:36.193Z,5.47
2022-10-21T22:48:05.030Z,5.18
2022-10-21T22:50:35.547Z,5.57
2022-10-21T22:53:07.113Z,5.22
2022-10-21T22:55:36.682Z,5.38
2022-10-21T22:58:05.692Z,5.10
2022-10-21T23:00:39.183Z,5.40
2022-10-21T23:03:09.722Z,5.15
2022-10-21T23:05:40.893Z,5.28
2022-10-21T23:08:09.645Z,5.40
2022-10-21T23:10:38.946Z,5.60
2022-10-21T23:13:07.925Z,4.97
2022-10-21T23:15:38.733Z,4.45
2022-10-21T23:18:07.950Z,4.93
2022-10-21T23:20:36.824Z,4.72
2022-10-21T23:23:06.441Z,4.93
2022-10-21T23:25:34.927Z,4.70
2022-10-21T23:28:05.443Z,4.90
2022-10-21T23:30:36.518Z,5.13
2022-10-21T23:33:06.713Z,5.13
2022-10-21T23:35:35.278Z,5.05
2022-10-21T23:38:04.502Z,4.78
2022-10-21T23:40:34.637Z,5.20
2022-10-21T23:43:04.370Z,5.32
2022-10-21T23:45:34.949Z,5.57
2022-10-21T23:48:07.140Z,5.25
2022-10-21T23:50:38.739Z,5.47
2022-10-21T23:53:10.195Z,4.72
2022-10-21T23:55:39.168Z,4.78
2022-10-21T23:58:10.292Z,4.80
